CPA256 EGLL-VHHH
Flight info
| Callsign | CPA256 |
|---|---|
| Flight time | N/A |
| Altitude | 35000 |
| Route | DET L6 DVR L9 KONAN UL607 KOK DCT MATUG DCT DINKU DCT AKIMA DCT TEGRI DCT LUGEB DCT UDROS UM859 KARDE UN644 FALAZ/N0492F370 UN644 ROLIN N644 ODILI DCT BARAD M747 SUBUT T916 BALUN/K0907F370 T916 KUNAS N193 SR L163 TISIB L141 MALEX/K0895F390 L141 KAMUD/K0893S1190 W186 SADAN Y1 OMBON W245 OVRAL B330 LEVTO/K0904S1250 B330 KWE W181 DUDIT A599 POU R473 SIERA |
| Aircraft | A359/H-SDE2E3GHIJ3J4J5LM1ORWXY/LB1D1 |
Departure
| Time | 2026-05-07 21:07 |
|---|---|
| Airport | London Heathrow Airport (EGLL) |
Arrival
| Time | N/A |
|---|---|
| Airport | Hong Kong International Airport (VHHH) |
| Time | Latitude | Longitude | Altitude | Speed | Heading |
|---|---|---|---|---|---|
| 2026-05-07 20:16 | 51.47318 | -0.46409 | 92 ft | 0 kts | 25° |
| 2026-05-07 20:51 | 51.47315 | -0.46411 | 92 ft | 3 kts | 25° |
| 2026-05-07 20:51 | 51.47292 | -0.46429 | 94 ft | 3 kts | 25° |
| 2026-05-07 20:51 | 51.47272 | -0.46441 | 93 ft | 4 kts | 5° |
| 2026-05-07 20:51 | 51.47247 | -0.46435 | 93 ft | 4 kts | 330° |
| 2026-05-07 20:52 | 51.47227 | -0.46414 | 93 ft | 4 kts | 325° |
| 2026-05-07 20:52 | 51.47205 | -0.46390 | 93 ft | 3 kts | 325° |
| 2026-05-07 20:52 | 51.47202 | -0.46386 | 92 ft | 0 kts | 326° |
| 2026-05-07 20:56 | 51.47202 | -0.46387 | 92 ft | 1 kts | 326° |
| 2026-05-07 20:56 | 51.47236 | -0.46451 | 97 ft | 13 kts | 290° |
| 2026-05-07 20:56 | 51.47238 | -0.46643 | 92 ft | 18 kts | 269° |
| 2026-05-07 20:56 | 51.47234 | -0.46821 | 96 ft | 11 kts | 257° |
| 2026-05-07 20:57 | 51.47182 | -0.46866 | 95 ft | 9 kts | 180° |
| 2026-05-07 20:57 | 51.47120 | -0.46865 | 92 ft | 9 kts | 180° |
| 2026-05-07 20:57 | 51.47055 | -0.46865 | 94 ft | 10 kts | 180° |
| 2026-05-07 20:57 | 51.46981 | -0.46864 | 95 ft | 11 kts | 180° |
| 2026-05-07 20:58 | 51.46893 | -0.46863 | 94 ft | 15 kts | 179° |
| 2026-05-07 20:58 | 51.46785 | -0.46861 | 95 ft | 16 kts | 180° |
| 2026-05-07 20:58 | 51.46703 | -0.46860 | 95 ft | 9 kts | 179° |
| 2026-05-07 20:58 | 51.46663 | -0.46903 | 97 ft | 7 kts | 250° |
| 2026-05-07 20:59 | 51.46657 | -0.47023 | 95 ft | 15 kts | 269° |
| 2026-05-07 20:59 | 51.46656 | -0.47200 | 95 ft | 16 kts | 270° |
| 2026-05-07 20:59 | 51.46656 | -0.47385 | 95 ft | 17 kts | 270° |
| 2026-05-07 20:59 | 51.46655 | -0.47590 | 95 ft | 22 kts | 270° |
| 2026-05-07 21:00 | 51.46654 | -0.47842 | 92 ft | 23 kts | 270° |
| 2026-05-07 21:00 | 51.46654 | -0.48027 | 92 ft | 10 kts | 270° |
| 2026-05-07 21:00 | 51.46654 | -0.48063 | 95 ft | 0 kts | 270° |
| 2026-05-07 21:02 | 51.46654 | -0.48067 | 96 ft | 3 kts | 270° |
| 2026-05-07 21:02 | 51.46653 | -0.48116 | 94 ft | 6 kts | 270° |
| 2026-05-07 21:03 | 51.46653 | -0.48197 | 92 ft | 8 kts | 270° |
| 2026-05-07 21:03 | 51.46653 | -0.48297 | 96 ft | 10 kts | 270° |
| 2026-05-07 21:03 | 51.46653 | -0.48417 | 92 ft | 11 kts | 270° |
| 2026-05-07 21:03 | 51.46652 | -0.48547 | 92 ft | 12 kts | 270° |
| 2026-05-07 21:04 | 51.46652 | -0.48669 | 92 ft | 6 kts | 270° |
| 2026-05-07 21:04 | 51.46647 | -0.48711 | 95 ft | 4 kts | 251° |
| 2026-05-07 21:04 | 51.46634 | -0.48739 | 95 ft | 3 kts | 226° |
| 2026-05-07 21:04 | 51.46616 | -0.48756 | 95 ft | 2 kts | 202° |
| 2026-05-07 21:05 | 51.46611 | -0.48759 | 95 ft | 0 kts | 202° |
| 2026-05-07 21:05 | 51.46588 | -0.48774 | 96 ft | 9 kts | 201° |
| 2026-05-07 21:06 | 51.46517 | -0.48778 | 95 ft | 10 kts | 156° |
| 2026-05-07 21:06 | 51.46481 | -0.48696 | 95 ft | 9 kts | 101° |
| 2026-05-07 21:06 | 51.46479 | -0.48594 | 92 ft | 9 kts | 90° |
| 2026-05-07 21:06 | 51.46478 | -0.48482 | 92 ft | 14 kts | 90° |
| 2026-05-07 21:07 | 51.46479 | -0.48068 | 95 ft | 68 kts | 90° |
| 2026-05-07 21:07 | 51.46483 | -0.46973 | 97 ft | 127 kts | 89° |
| 2026-05-07 21:07 | 51.46484 | -0.45279 | 122 ft | 172 kts | 91° |
| 2026-05-07 21:07 | 51.46479 | -0.43428 | 886 ft | 161 kts | 97° |
| 2026-05-07 21:08 | 51.46297 | -0.41655 | 1499 ft | 163 kts | 110° |
| 2026-05-07 21:08 | 51.45893 | -0.39924 | 1915 ft | 173 kts | 113° |
| 2026-05-07 21:08 | 51.45412 | -0.38075 | 2121 ft | 187 kts | 114° |
| 2026-05-07 21:08 | 51.44883 | -0.36085 | 2375 ft | 201 kts | 114° |
| 2026-05-07 21:09 | 51.44313 | -0.33946 | 2587 ft | 217 kts | 114° |
| 2026-05-07 21:09 | 51.43697 | -0.31639 | 2840 ft | 233 kts | 113° |
| 2026-05-07 21:09 | 51.43041 | -0.29190 | 3204 ft | 244 kts | 113° |
| 2026-05-07 21:09 | 51.42370 | -0.26684 | 3676 ft | 248 kts | 113° |
| 2026-05-07 21:10 | 51.41680 | -0.24106 | 4199 ft | 252 kts | 113° |
| 2026-05-07 21:10 | 51.40959 | -0.21529 | 4735 ft | 255 kts | 116° |
| 2026-05-07 21:10 | 51.40258 | -0.18909 | 5240 ft | 259 kts | 105° |
| 2026-05-07 21:10 | 51.39902 | -0.16065 | 5776 ft | 262 kts | 100° |
| 2026-05-07 21:11 | 51.39599 | -0.13160 | 6151 ft | 268 kts | 99° |
| 2026-05-07 21:11 | 51.39322 | -0.10188 | 6151 ft | 270 kts | 98° |
| 2026-05-07 21:11 | 51.38837 | -0.04254 | 6072 ft | 269 kts | 97° |
| 2026-05-07 21:12 | 51.38607 | -0.01281 | 6072 ft | 269 kts | 97° |
| 2026-05-07 21:12 | 51.38381 | 0.01690 | 6101 ft | 269 kts | 97° |
| 2026-05-07 21:12 | 51.38157 | 0.04663 | 6104 ft | 269 kts | 97° |
| 2026-05-07 21:12 | 51.37917 | 0.07621 | 6103 ft | 268 kts | 100° |
| 2026-05-07 21:13 | 51.37542 | 0.10553 | 6104 ft | 269 kts | 103° |
| 2026-05-07 21:13 | 51.37120 | 0.13462 | 6103 ft | 269 kts | 103° |
| 2026-05-07 21:13 | 51.36694 | 0.16373 | 6101 ft | 269 kts | 103° |
| 2026-05-07 21:13 | 51.36272 | 0.19280 | 6100 ft | 268 kts | 103° |
| 2026-05-07 21:14 | 51.35856 | 0.22195 | 6099 ft | 268 kts | 103° |
| 2026-05-07 21:14 | 51.35436 | 0.25107 | 6096 ft | 269 kts | 103° |
| 2026-05-07 21:14 | 51.35016 | 0.28021 | 6096 ft | 269 kts | 103° |
| 2026-05-07 21:14 | 51.34595 | 0.30935 | 6096 ft | 268 kts | 103° |
| 2026-05-07 21:15 | 51.34175 | 0.33838 | 6094 ft | 268 kts | 103° |
| 2026-05-07 21:15 | 51.33753 | 0.36752 | 6093 ft | 269 kts | 103° |
| 2026-05-07 21:15 | 51.33331 | 0.39664 | 6092 ft | 269 kts | 103° |
| 2026-05-07 21:15 | 51.32908 | 0.42578 | 6090 ft | 269 kts | 103° |
| 2026-05-07 21:16 | 51.32484 | 0.45491 | 5902 ft | 270 kts | 103° |
| 2026-05-07 21:16 | 51.32060 | 0.48419 | 5908 ft | 270 kts | 103° |
| 2026-05-07 21:16 | 51.31637 | 0.51327 | 5905 ft | 269 kts | 103° |
| 2026-05-07 21:16 | 51.31210 | 0.54233 | 5910 ft | 268 kts | 103° |
| 2026-05-07 21:17 | 51.30784 | 0.57131 | 5914 ft | 268 kts | 103° |
| 2026-05-07 21:17 | 51.30357 | 0.60031 | 5922 ft | 268 kts | 103° |
| 2026-05-07 21:17 | 51.29904 | 0.62920 | 6063 ft | 269 kts | 105° |
| 2026-05-07 21:17 | 51.29383 | 0.65811 | 6509 ft | 272 kts | 107° |
| 2026-05-07 21:18 | 51.28831 | 0.68710 | 7104 ft | 274 kts | 108° |
| 2026-05-07 21:18 | 51.28267 | 0.71640 | 7676 ft | 278 kts | 108° |
| 2026-05-07 21:18 | 51.27701 | 0.74606 | 8260 ft | 281 kts | 107° |
| 2026-05-07 21:18 | 51.27136 | 0.77614 | 8850 ft | 285 kts | 107° |
| 2026-05-07 21:19 | 51.26568 | 0.80669 | 9428 ft | 289 kts | 107° |
| 2026-05-07 21:19 | 51.26004 | 0.83725 | 10003 ft | 293 kts | 107° |
| 2026-05-07 21:19 | 51.25412 | 0.86932 | 10375 ft | 304 kts | 107° |
| 2026-05-07 21:19 | 51.24801 | 0.90246 | 10648 ft | 319 kts | 107° |
| 2026-05-07 21:20 | 51.24158 | 0.93719 | 10924 ft | 333 kts | 108° |
| 2026-05-07 21:20 | 51.23488 | 0.97335 | 11252 ft | 346 kts | 108° |
| 2026-05-07 21:20 | 51.22794 | 1.01075 | 11542 ft | 358 kts | 108° |
| 2026-05-07 21:20 | 51.22071 | 1.04960 | 11818 ft | 371 kts | 108° |
| 2026-05-07 21:21 | 51.21325 | 1.08958 | 12081 ft | 383 kts | 108° |
| 2026-05-07 21:21 | 51.20557 | 1.13069 | 12490 ft | 390 kts | 108° |
| 2026-05-07 21:21 | 51.19778 | 1.17234 | 12983 ft | 394 kts | 108° |
| 2026-05-07 21:21 | 51.18990 | 1.21437 | 13514 ft | 397 kts | 108° |
| 2026-05-07 21:22 | 51.18193 | 1.25677 | 14024 ft | 401 kts | 108° |
| 2026-05-07 21:22 | 51.17388 | 1.29951 | 14482 ft | 404 kts | 108° |
| 2026-05-07 21:22 | 51.16636 | 1.34220 | 14917 ft | 409 kts | 103° |
| 2026-05-07 21:22 | 51.16181 | 1.38780 | 15374 ft | 413 kts | 98° |
| 2026-05-07 21:23 | 51.15869 | 1.43281 | 15817 ft | 416 kts | 96° |
| 2026-05-07 21:23 | 51.15618 | 1.47955 | 16248 ft | 420 kts | 95° |
| 2026-05-07 21:23 | 51.15404 | 1.52611 | 16730 ft | 423 kts | 95° |
| 2026-05-07 21:23 | 51.15197 | 1.57304 | 17176 ft | 426 kts | 95° |
| 2026-05-07 21:24 | 51.14986 | 1.62029 | 17627 ft | 429 kts | 95° |
| 2026-05-07 21:24 | 51.14766 | 1.66787 | 18090 ft | 432 kts | 95° |
| 2026-05-07 21:24 | 51.14536 | 1.71562 | 18545 ft | 436 kts | 95° |
| 2026-05-07 21:24 | 51.14297 | 1.76389 | 18965 ft | 438 kts | 95° |
| 2026-05-07 21:25 | 51.14055 | 1.81181 | 19388 ft | 441 kts | 95° |
| 2026-05-07 21:25 | 51.13805 | 1.86068 | 19839 ft | 444 kts | 96° |
| 2026-05-07 21:25 | 51.13551 | 1.90980 | 20303 ft | 446 kts | 95° |
| 2026-05-07 21:25 | 51.13294 | 1.95917 | 20741 ft | 450 kts | 95° |
| 2026-05-07 21:26 | 51.13034 | 2.00886 | 21169 ft | 452 kts | 96° |
| 2026-05-07 21:26 | 51.12774 | 2.05899 | 21599 ft | 455 kts | 96° |
| 2026-05-07 21:26 | 51.12506 | 2.10944 | 22033 ft | 458 kts | 96° |
| 2026-05-07 21:26 | 51.12233 | 2.16012 | 22467 ft | 461 kts | 96° |
| 2026-05-07 21:27 | 51.11956 | 2.21104 | 22903 ft | 464 kts | 96° |
| 2026-05-07 21:27 | 51.11675 | 2.26238 | 23312 ft | 467 kts | 96° |
| 2026-05-07 21:27 | 51.11390 | 2.31397 | 23725 ft | 470 kts | 96° |
| 2026-05-07 21:27 | 51.11101 | 2.36600 | 24076 ft | 473 kts | 96° |
| 2026-05-07 21:28 | 51.10809 | 2.41825 | 24405 ft | 476 kts | 96° |
| 2026-05-07 21:28 | 51.10513 | 2.47076 | 24752 ft | 478 kts | 96° |
| 2026-05-07 21:28 | 51.10214 | 2.52359 | 25106 ft | 481 kts | 96° |
| 2026-05-07 21:28 | 51.09910 | 2.57667 | 25466 ft | 483 kts | 96° |
| 2026-05-07 21:29 | 51.09562 | 2.63004 | 25808 ft | 485 kts | 99° |
| 2026-05-07 21:29 | 51.08906 | 2.68271 | 26150 ft | 487 kts | 104° |
| 2026-05-07 21:29 | 51.08122 | 2.73511 | 26493 ft | 489 kts | 105° |
| 2026-05-07 21:29 | 51.07284 | 2.78759 | 26832 ft | 491 kts | 106° |
| 2026-05-07 21:30 | 51.06409 | 2.84031 | 27177 ft | 493 kts | 106° |
| 2026-05-07 21:30 | 51.05518 | 2.89312 | 27466 ft | 497 kts | 106° |
| 2026-05-07 21:30 | 51.04617 | 2.94638 | 27765 ft | 499 kts | 106° |
| 2026-05-07 21:30 | 51.03715 | 2.99970 | 28074 ft | 501 kts | 106° |
| 2026-05-07 21:31 | 51.02812 | 3.05321 | 28371 ft | 503 kts | 106° |
| 2026-05-07 21:31 | 51.01906 | 3.10694 | 28659 ft | 505 kts | 106° |
| 2026-05-07 21:31 | 51.00138 | 3.21155 | 29219 ft | 508 kts | 106° |
| 2026-05-07 21:32 | 50.99219 | 3.26574 | 29631 ft | 507 kts | 106° |
| 2026-05-07 21:32 | 50.98300 | 3.31982 | 30003 ft | 507 kts | 106° |
| 2026-05-07 21:32 | 50.97380 | 3.37370 | 30299 ft | 507 kts | 106° |
| 2026-05-07 21:32 | 50.96455 | 3.42771 | 30609 ft | 506 kts | 107° |
| 2026-05-07 21:33 | 50.95532 | 3.48144 | 30914 ft | 506 kts | 107° |
| 2026-05-07 21:33 | 50.94605 | 3.53522 | 31202 ft | 505 kts | 107° |
| 2026-05-07 21:33 | 50.93677 | 3.58892 | 31484 ft | 505 kts | 107° |
| 2026-05-07 21:33 | 50.92748 | 3.64248 | 31763 ft | 504 kts | 107° |
| 2026-05-07 21:34 | 50.91815 | 3.69610 | 32039 ft | 504 kts | 107° |
| 2026-05-07 21:34 | 50.90884 | 3.74952 | 32295 ft | 503 kts | 107° |
| 2026-05-07 21:34 | 50.89949 | 3.80293 | 32524 ft | 503 kts | 107° |
| 2026-05-07 21:34 | 50.89009 | 3.85645 | 32736 ft | 504 kts | 107° |
| 2026-05-07 21:35 | 50.88070 | 3.90978 | 32992 ft | 503 kts | 107° |
| 2026-05-07 21:35 | 50.87129 | 3.96311 | 33244 ft | 502 kts | 107° |
| 2026-05-07 21:35 | 50.86187 | 4.01629 | 33484 ft | 502 kts | 107° |
| 2026-05-07 21:35 | 50.85242 | 4.06949 | 33692 ft | 502 kts | 107° |
| 2026-05-07 21:36 | 50.84297 | 4.12253 | 33928 ft | 501 kts | 107° |
| 2026-05-07 21:36 | 50.83348 | 4.17562 | 34136 ft | 500 kts | 107° |
| 2026-05-07 21:36 | 50.82400 | 4.22851 | 34311 ft | 500 kts | 107° |
| 2026-05-07 21:36 | 50.81450 | 4.28136 | 34460 ft | 500 kts | 107° |
| 2026-05-07 21:37 | 50.80497 | 4.33426 | 34609 ft | 500 kts | 107° |
| 2026-05-07 21:37 | 50.79541 | 4.38712 | 34751 ft | 500 kts | 107° |
| 2026-05-07 21:37 | 50.78583 | 4.43995 | 34923 ft | 499 kts | 107° |
| 2026-05-07 21:37 | 50.77628 | 4.49250 | 35070 ft | 499 kts | 107° |
| 2026-05-07 21:38 | 50.75696 | 4.59824 | 35100 ft | 504 kts | 107° |
| 2026-05-07 21:38 | 50.73735 | 4.70498 | 35080 ft | 506 kts | 107° |
| 2026-05-07 21:39 | 50.71764 | 4.81165 | 35086 ft | 506 kts | 108° |
| 2026-05-07 21:39 | 50.69785 | 4.91818 | 35083 ft | 506 kts | 108° |
| 2026-05-07 21:40 | 50.67800 | 5.02445 | 35084 ft | 506 kts | 108° |
| 2026-05-07 21:40 | 50.65801 | 5.13080 | 35092 ft | 506 kts | 108° |
| 2026-05-07 21:41 | 50.64130 | 5.21921 | 35097 ft | 506 kts | 108° |
| 2026-05-07 21:41 | 50.62112 | 5.32546 | 35075 ft | 506 kts | 108° |
| 2026-05-07 21:42 | 50.60086 | 5.43153 | 35073 ft | 506 kts | 108° |
| 2026-05-07 21:42 | 50.58048 | 5.53764 | 35073 ft | 506 kts | 108° |
| 2026-05-07 21:43 | 50.56006 | 5.64341 | 35076 ft | 507 kts | 108° |
| 2026-05-07 21:43 | 50.53938 | 5.74987 | 35076 ft | 511 kts | 108° |
| 2026-05-07 21:44 | 50.51843 | 5.85708 | 35079 ft | 514 kts | 108° |
| 2026-05-07 21:44 | 50.49738 | 5.96429 | 35078 ft | 513 kts | 108° |
| 2026-05-07 21:45 | 50.47626 | 6.07126 | 35075 ft | 512 kts | 108° |
| 2026-05-07 21:45 | 50.45517 | 6.17747 | 35079 ft | 513 kts | 108° |
| 2026-05-07 21:46 | 50.43385 | 6.28427 | 35077 ft | 513 kts | 109° |
| 2026-05-07 21:46 | 50.41082 | 6.38996 | 35081 ft | 512 kts | 113° |
| 2026-05-07 21:47 | 50.38361 | 6.49300 | 35073 ft | 512 kts | 114° |
| 2026-05-07 21:47 | 50.35560 | 6.59553 | 35078 ft | 512 kts | 115° |
| 2026-05-07 21:48 | 50.32748 | 6.69786 | 35075 ft | 512 kts | 115° |
| 2026-05-07 21:48 | 50.29937 | 6.80007 | 35075 ft | 512 kts | 115° |
| 2026-05-07 21:49 | 50.27120 | 6.90220 | 35076 ft | 512 kts | 115° |
| 2026-05-07 21:49 | 50.24298 | 7.00415 | 35076 ft | 511 kts | 115° |
| 2026-05-07 21:50 | 50.21446 | 7.10672 | 35075 ft | 511 kts | 115° |
| 2026-05-07 21:50 | 50.18621 | 7.20786 | 35074 ft | 512 kts | 115° |
| 2026-05-07 21:51 | 50.15768 | 7.30955 | 35075 ft | 512 kts | 115° |
| 2026-05-07 21:51 | 50.12908 | 7.41107 | 35076 ft | 512 kts | 115° |
| 2026-05-07 21:52 | 50.10035 | 7.51259 | 35081 ft | 512 kts | 115° |
| 2026-05-07 21:52 | 50.07157 | 7.61388 | 35080 ft | 512 kts | 115° |
| 2026-05-07 21:53 | 50.04267 | 7.71513 | 35085 ft | 512 kts | 115° |
| 2026-05-07 21:53 | 50.01368 | 7.81629 | 35085 ft | 512 kts | 115° |
| 2026-05-07 21:54 | 49.98464 | 7.91718 | 35086 ft | 512 kts | 115° |
| 2026-05-07 21:54 | 49.95551 | 8.01799 | 35085 ft | 512 kts | 115° |
| 2026-05-07 21:55 | 49.92627 | 8.11873 | 35084 ft | 512 kts | 115° |
| 2026-05-07 21:55 | 49.89698 | 8.21923 | 35073 ft | 512 kts | 115° |
| 2026-05-07 21:56 | 49.86750 | 8.31994 | 35079 ft | 513 kts | 116° |
| 2026-05-07 21:56 | 49.83795 | 8.42051 | 35075 ft | 513 kts | 116° |
| 2026-05-07 21:57 | 49.80829 | 8.52101 | 35077 ft | 513 kts | 116° |
| 2026-05-07 21:57 | 49.77855 | 8.62134 | 35080 ft | 513 kts | 116° |
| 2026-05-07 21:58 | 49.74871 | 8.72160 | 35080 ft | 513 kts | 116° |
| 2026-05-07 21:58 | 49.71881 | 8.82169 | 35079 ft | 513 kts | 116° |
| 2026-05-07 21:59 | 49.68879 | 8.92174 | 35076 ft | 513 kts | 116° |
| 2026-05-07 21:59 | 49.65868 | 9.02169 | 35078 ft | 513 kts | 116° |
| 2026-05-07 22:00 | 49.62849 | 9.12147 | 35080 ft | 514 kts | 116° |
| 2026-05-07 22:00 | 49.59817 | 9.22128 | 35074 ft | 514 kts | 116° |
| 2026-05-07 22:01 | 49.56775 | 9.32105 | 35079 ft | 514 kts | 116° |
| 2026-05-07 22:01 | 49.53724 | 9.42068 | 35077 ft | 514 kts | 116° |
| 2026-05-07 22:02 | 49.50677 | 9.51974 | 35078 ft | 516 kts | 117° |
| 2026-05-07 22:02 | 49.47597 | 9.61952 | 35077 ft | 516 kts | 117° |
| 2026-05-07 22:03 | 49.44510 | 9.71912 | 35075 ft | 516 kts | 117° |
| 2026-05-07 22:03 | 49.41411 | 9.81871 | 35075 ft | 516 kts | 117° |
| 2026-05-07 22:04 | 49.38304 | 9.91813 | 35076 ft | 518 kts | 117° |
| 2026-05-07 22:04 | 49.35173 | 10.01794 | 35074 ft | 519 kts | 117° |
| 2026-05-07 22:05 | 49.32036 | 10.11756 | 35078 ft | 519 kts | 117° |
| 2026-05-07 22:05 | 49.28905 | 10.21657 | 35080 ft | 519 kts | 117° |
| 2026-05-07 22:06 | 49.25734 | 10.31645 | 35109 ft | 521 kts | 117° |
| 2026-05-07 22:06 | 49.22581 | 10.41618 | 35104 ft | 522 kts | 115° |
| 2026-05-07 22:07 | 49.19814 | 10.51914 | 35134 ft | 523 kts | 112° |
| 2026-05-07 22:07 | 49.17182 | 10.62292 | 35140 ft | 523 kts | 112° |
| 2026-05-07 22:08 | 49.14489 | 10.72606 | 35128 ft | 523 kts | 113° |
| 2026-05-07 22:08 | 49.11740 | 10.82878 | 35140 ft | 523 kts | 113° |
| 2026-05-07 22:09 | 49.08967 | 10.93137 | 35124 ft | 523 kts | 114° |
| 2026-05-07 22:09 | 49.06188 | 11.03380 | 35109 ft | 522 kts | 114° |
| 2026-05-07 22:10 | 49.03407 | 11.13599 | 35109 ft | 522 kts | 114° |
| 2026-05-07 22:10 | 49.00617 | 11.23808 | 35110 ft | 522 kts | 114° |
| 2026-05-07 22:11 | 48.97819 | 11.34001 | 35093 ft | 522 kts | 114° |
| 2026-05-07 22:11 | 48.95014 | 11.44177 | 35101 ft | 522 kts | 114° |
| 2026-05-07 22:12 | 48.92190 | 11.54376 | 35096 ft | 524 kts | 114° |
| 2026-05-07 22:12 | 48.89353 | 11.64577 | 35099 ft | 524 kts | 114° |
| 2026-05-07 22:13 | 48.86513 | 11.74749 | 35091 ft | 524 kts | 114° |
| 2026-05-07 22:13 | 48.83656 | 11.84935 | 35102 ft | 524 kts | 114° |
| 2026-05-07 22:14 | 48.80789 | 11.95113 | 35102 ft | 524 kts | 115° |
| 2026-05-07 22:14 | 48.77916 | 12.05268 | 35094 ft | 525 kts | 115° |
| 2026-05-07 22:15 | 48.75030 | 12.15428 | 35102 ft | 525 kts | 115° |
| 2026-05-07 22:15 | 48.72136 | 12.25576 | 35101 ft | 524 kts | 115° |
| 2026-05-07 22:16 | 48.69232 | 12.35711 | 35089 ft | 525 kts | 115° |
| 2026-05-07 22:16 | 48.66315 | 12.45848 | 35097 ft | 526 kts | 115° |
| 2026-05-07 22:17 | 48.63386 | 12.55986 | 35101 ft | 526 kts | 115° |
| 2026-05-07 22:17 | 48.60453 | 12.66097 | 35079 ft | 526 kts | 115° |
| 2026-05-07 22:18 | 48.56043 | 12.81217 | 35099 ft | 527 kts | 115° |
| 2026-05-07 22:19 | 48.53058 | 12.91401 | 35096 ft | 527 kts | 116° |
| 2026-05-07 22:19 | 48.50101 | 13.01444 | 35094 ft | 527 kts | 116° |
| 2026-05-07 22:20 | 48.47115 | 13.11549 | 35098 ft | 527 kts | 116° |
| 2026-05-07 22:20 | 48.44127 | 13.21615 | 35096 ft | 527 kts | 116° |
| 2026-05-07 22:21 | 48.41129 | 13.31676 | 35096 ft | 527 kts | 116° |
| 2026-05-07 22:21 | 48.38498 | 13.41972 | 35096 ft | 528 kts | 110° |
| 2026-05-07 22:22 | 48.36205 | 13.52472 | 35092 ft | 528 kts | 110° |
| 2026-05-07 22:22 | 48.33858 | 13.62930 | 35103 ft | 528 kts | 111° |
| 2026-05-07 22:23 | 48.31430 | 13.73333 | 35094 ft | 528 kts | 111° |
| 2026-05-07 22:23 | 48.28964 | 13.83720 | 35098 ft | 528 kts | 111° |
| 2026-05-07 22:24 | 48.26487 | 13.94098 | 35096 ft | 528 kts | 111° |
| 2026-05-07 22:24 | 48.24007 | 14.04456 | 35094 ft | 527 kts | 111° |
| 2026-05-07 22:25 | 48.21525 | 14.14784 | 35102 ft | 527 kts | 111° |
| 2026-05-07 22:25 | 48.19026 | 14.25132 | 35084 ft | 528 kts | 112° |
| 2026-05-07 22:26 | 48.16516 | 14.35479 | 35102 ft | 529 kts | 112° |
| 2026-05-07 22:26 | 48.14416 | 14.44097 | 35099 ft | 530 kts | 112° |
| 2026-05-07 22:27 | 48.11455 | 14.56195 | 35094 ft | 530 kts | 112° |
| 2026-05-07 22:27 | 48.09340 | 14.64795 | 35084 ft | 529 kts | 112° |
| 2026-05-07 22:28 | 48.06794 | 14.75105 | 35093 ft | 529 kts | 112° |
| 2026-05-07 22:28 | 48.04235 | 14.85415 | 35091 ft | 529 kts | 112° |
| 2026-05-07 22:29 | 48.01672 | 14.95701 | 35095 ft | 529 kts | 113° |
| 2026-05-07 22:29 | 47.99096 | 15.05988 | 35086 ft | 528 kts | 113° |
| 2026-05-07 22:30 | 47.96516 | 15.16239 | 35089 ft | 527 kts | 113° |
| 2026-05-07 22:30 | 47.93929 | 15.26480 | 35089 ft | 527 kts | 113° |
| 2026-05-07 22:31 | 47.91332 | 15.36713 | 35105 ft | 527 kts | 113° |
| 2026-05-07 22:31 | 47.88746 | 15.46861 | 35087 ft | 526 kts | 114° |
| 2026-05-07 22:32 | 47.86141 | 15.57032 | 35089 ft | 526 kts | 114° |
| 2026-05-07 22:32 | 47.83529 | 15.67183 | 35082 ft | 526 kts | 114° |
| 2026-05-07 22:33 | 47.80900 | 15.77354 | 35086 ft | 526 kts | 114° |
| 2026-05-07 22:33 | 47.78269 | 15.87492 | 35079 ft | 526 kts | 114° |
| 2026-05-07 22:34 | 47.75632 | 15.97607 | 35078 ft | 526 kts | 114° |
| 2026-05-07 22:34 | 47.72976 | 16.07750 | 35076 ft | 526 kts | 115° |
| 2026-05-07 22:35 | 47.70321 | 16.17849 | 35056 ft | 526 kts | 115° |
| 2026-05-07 22:35 | 47.67652 | 16.27952 | 35068 ft | 526 kts | 115° |
| 2026-05-07 22:36 | 47.64971 | 16.38059 | 35060 ft | 526 kts | 115° |
| 2026-05-07 22:36 | 47.62285 | 16.48139 | 35062 ft | 526 kts | 115° |
| 2026-05-07 22:37 | 47.59590 | 16.58214 | 35063 ft | 526 kts | 115° |
| 2026-05-07 22:37 | 47.56879 | 16.68304 | 35052 ft | 526 kts | 115° |
| 2026-05-07 22:38 | 47.54167 | 16.78355 | 35053 ft | 526 kts | 115° |
| 2026-05-07 22:38 | 47.51460 | 16.88344 | 35054 ft | 526 kts | 116° |
| 2026-05-07 22:39 | 47.48710 | 16.98444 | 35044 ft | 527 kts | 116° |
| 2026-05-07 22:39 | 47.45962 | 17.08497 | 35044 ft | 527 kts | 116° |
| 2026-05-07 22:40 | 47.43209 | 17.18529 | 35045 ft | 527 kts | 116° |
| 2026-05-07 22:40 | 47.40444 | 17.28559 | 35047 ft | 527 kts | 116° |
| 2026-05-07 22:41 | 47.37672 | 17.38573 | 35049 ft | 526 kts | 116° |
| 2026-05-07 22:41 | 47.34896 | 17.48562 | 35047 ft | 526 kts | 116° |
| 2026-05-07 22:42 | 47.32116 | 17.58521 | 35049 ft | 526 kts | 116° |
| 2026-05-07 22:42 | 47.29327 | 17.68468 | 35026 ft | 525 kts | 117° |
| 2026-05-07 22:43 | 47.26532 | 17.78401 | 35045 ft | 525 kts | 117° |
| 2026-05-07 22:43 | 47.23727 | 17.88327 | 35037 ft | 524 kts | 117° |
| 2026-05-07 22:44 | 47.20916 | 17.98227 | 35038 ft | 526 kts | 117° |
| 2026-05-07 22:44 | 47.18092 | 18.08136 | 35043 ft | 525 kts | 117° |
| 2026-05-07 22:45 | 47.15266 | 18.18020 | 35047 ft | 523 kts | 117° |
| 2026-05-07 22:45 | 47.12458 | 18.27790 | 35046 ft | 523 kts | 117° |
| 2026-05-07 22:46 | 47.09628 | 18.37602 | 35045 ft | 523 kts | 117° |
| 2026-05-07 22:46 | 47.06790 | 18.47402 | 35043 ft | 520 kts | 117° |
| 2026-05-07 22:47 | 47.03963 | 18.57130 | 35043 ft | 518 kts | 117° |
| 2026-05-07 22:47 | 47.01127 | 18.66840 | 35042 ft | 518 kts | 117° |
| 2026-05-07 22:48 | 46.98291 | 18.76514 | 35017 ft | 518 kts | 117° |
| 2026-05-07 22:48 | 46.95446 | 18.86185 | 35043 ft | 516 kts | 117° |
| 2026-05-07 22:49 | 46.92608 | 18.95794 | 35042 ft | 515 kts | 118° |
| 2026-05-07 22:49 | 46.89753 | 19.05421 | 35042 ft | 515 kts | 118° |
| 2026-05-07 22:50 | 46.86896 | 19.15017 | 35049 ft | 514 kts | 118° |
| 2026-05-07 22:50 | 46.84038 | 19.24585 | 35043 ft | 513 kts | 118° |
| 2026-05-07 22:51 | 46.81179 | 19.34115 | 35043 ft | 513 kts | 118° |
| 2026-05-07 22:51 | 46.78306 | 19.43653 | 35041 ft | 513 kts | 118° |
| 2026-05-07 22:52 | 46.75430 | 19.53168 | 35039 ft | 512 kts | 118° |
| 2026-05-07 22:52 | 46.72551 | 19.62657 | 35036 ft | 512 kts | 118° |
| 2026-05-07 22:53 | 46.69663 | 19.72137 | 35044 ft | 513 kts | 118° |
| 2026-05-07 22:53 | 46.66759 | 19.81633 | 35047 ft | 513 kts | 118° |
| 2026-05-07 22:54 | 46.63852 | 19.91108 | 35046 ft | 512 kts | 118° |
| 2026-05-07 22:54 | 46.60941 | 20.00559 | 35045 ft | 512 kts | 118° |
| 2026-05-07 22:55 | 46.58022 | 20.09997 | 35046 ft | 511 kts | 118° |
| 2026-05-07 22:55 | 46.55099 | 20.19416 | 35045 ft | 511 kts | 118° |
| 2026-05-07 22:56 | 46.52168 | 20.28824 | 35045 ft | 511 kts | 118° |
| 2026-05-07 22:56 | 46.49230 | 20.38221 | 35045 ft | 511 kts | 118° |